sensor_id;sensor_type;location;lat;lon;timestamp;temperature;humidity
18169;DHT22;49877;50.398;30.324;2022-09-12T00:01:10;14.90;99.90
18169;DHT22;49877;50.398;30.324;2022-09-12T00:03:38;14.80;99.90
18169;DHT22;49877;50.398;30.324;2022-09-12T00:06:10;14.80;99.90
18169;DHT22;49877;50.398;30.324;2022-09-12T00:08:38;14.80;99.90
18169;DHT22;49877;50.398;30.324;2022-09-12T00:11:08;14.80;99.90
18169;DHT22;49877;50.398;30.324;2022-09-12T00:13:37;14.80;99.90
18169;DHT22;49877;50.398;30.324;2022-09-12T00:16:05;14.80;99.90
18169;DHT22;49877;50.398;30.324;2022-09-12T00:18:33;14.80;99.90
18169;DHT22;49877;50.398;30.324;2022-09-12T00:21:02;14.80;99.90
18169;DHT22;49877;50.398;30.324;2022-09-12T00:23:30;14.80;99.90
18169;DHT22;49877;50.398;30.324;2022-09-12T00:25:56;14.80;99.90
18169;DHT22;49877;50.398;30.324;2022-09-12T00:28:23;14.80;99.90
18169;DHT22;49877;50.398;30.324;2022-09-12T00:30:52;14.80;99.90
18169;DHT22;49877;50.398;30.324;2022-09-12T00:33:19;14.80;99.90
18169;DHT22;49877;50.398;30.324;2022-09-12T00:35:48;14.80;99.90
18169;DHT22;49877;50.398;30.324;2022-09-12T00:38:18;14.80;99.90
18169;DHT22;49877;50.398;30.324;2022-09-12T00:40:45;14.80;99.90
18169;DHT22;49877;50.398;30.324;2022-09-12T00:43:13;14.90;99.90
18169;DHT22;49877;50.398;30.324;2022-09-12T00:45:41;14.90;99.90
18169;DHT22;49877;50.398;30.324;2022-09-12T00:48:17;14.90;99.90
18169;DHT22;49877;50.398;30.324;2022-09-12T00:50:46;14.90;99.90
18169;DHT22;49877;50.398;30.324;2022-09-12T00:53:13;14.90;99.90
18169;DHT22;49877;50.398;30.324;2022-09-12T00:55:41;14.90;99.90
18169;DHT22;49877;50.398;30.324;2022-09-12T00:58:13;14.90;99.90
18169;DHT22;49877;50.398;30.324;2022-09-12T01:00:42;14.90;99.90
18169;DHT22;49877;50.398;30.324;2022-09-12T01:03:12;14.90;99.90
18169;DHT22;49877;50.398;30.324;2022-09-12T01:05:42;14.90;99.90
18169;DHT22;49877;50.398;30.324;2022-09-12T01:08:10;14.80;99.90
18169;DHT22;49877;50.398;30.324;2022-09-12T01:10:38;14.80;99.90
18169;DHT22;49877;50.398;30.324;2022-09-12T01:13:07;14.80;99.90
18169;DHT22;49877;50.398;30.324;2022-09-12T01:15:36;14.80;99.90
18169;DHT22;49877;50.398;30.324;2022-09-12T01:18:11;14.80;99.90
18169;DHT22;49877;50.398;30.324;2022-09-12T01:20:48;14.80;99.90
18169;DHT22;49877;50.398;30.324;2022-09-12T01:23:44;14.80;99.90
18169;DHT22;49877;50.398;30.324;2022-09-12T01:29:21;14.80;99.90
18169;DHT22;49877;50.398;30.324;2022-09-12T01:31:54;14.80;99.90
18169;DHT22;49877;50.398;30.324;2022-09-12T01:34:25;14.70;99.90
18169;DHT22;49877;50.398;30.324;2022-09-12T01:37:03;14.70;99.90
18169;DHT22;49877;50.398;30.324;2022-09-12T01:39:39;14.70;99.90
18169;DHT22;49877;50.398;30.324;2022-09-12T01:42:14;14.70;99.90
18169;DHT22;49877;50.398;30.324;2022-09-12T01:44:48;14.70;99.90
18169;DHT22;49877;50.398;30.324;2022-09-12T01:47:26;14.70;99.90
18169;DHT22;49877;50.398;30.324;2022-09-12T01:49:59;14.60;99.90
18169;DHT22;49877;50.398;30.324;2022-09-12T01:52:30;14.60;99.90
18169;DHT22;49877;50.398;30.324;2022-09-12T01:55:04;14.60;99.90
18169;DHT22;49877;50.398;30.324;2022-09-12T01:57:36;14.60;99.90
18169;DHT22;49877;50.398;30.324;2022-09-12T02:00:08;14.60;99.90
18169;DHT22;49877;50.398;30.324;2022-09-12T02:02:38;14.60;99.90
18169;DHT22;49877;50.398;30.324;2022-09-12T02:05:08;14.50;99.90
18169;DHT22;49877;50.398;30.324;2022-09-12T02:07:38;14.50;99.90
18169;DHT22;49877;50.398;30.324;2022-09-12T02:10:08;14.50;99.90
18169;DHT22;49877;50.398;30.324;2022-09-12T02:12:40;14.50;99.90
18169;DHT22;49877;50.398;30.324;2022-09-12T02:15:11;14.50;99.90
18169;DHT22;49877;50.398;30.324;2022-09-12T02:17:43;14.50;99.90
18169;DHT22;49877;50.398;30.324;2022-09-12T02:20:15;14.40;99.90
18169;DHT22;49877;50.398;30.324;2022-09-12T02:22:44;14.40;99.90
18169;DHT22;49877;50.398;30.324;2022-09-12T02:25:15;14.40;99.90
18169;DHT22;49877;50.398;30.324;2022-09-12T02:27:45;14.30;99.90
18169;DHT22;49877;50.398;30.324;2022-09-12T02:30:14;14.30;99.90
18169;DHT22;49877;50.398;30.324;2022-09-12T02:32:51;14.30;99.90
18169;DHT22;49877;50.398;30.324;2022-09-12T02:35:30;14.30;99.90
18169;DHT22;49877;50.398;30.324;2022-09-12T02:38:02;14.30;99.90
18169;DHT22;49877;50.398;30.324;2022-09-12T02:40:30;14.20;99.90
18169;DHT22;49877;50.398;30.324;2022-09-12T02:42:57;14.30;99.90
18169;DHT22;49877;50.398;30.324;2022-09-12T02:45:24;14.20;99.90
18169;DHT22;49877;50.398;30.324;2022-09-12T02:47:56;14.20;99.90
18169;DHT22;49877;50.398;30.324;2022-09-12T02:50:24;14.30;99.90
18169;DHT22;49877;50.398;30.324;2022-09-12T02:52:52;14.20;99.90
18169;DHT22;49877;50.398;30.324;2022-09-12T02:55:24;14.20;99.90
18169;DHT22;49877;50.398;30.324;2022-09-12T02:57:51;14.20;99.90
18169;DHT22;49877;50.398;30.324;2022-09-12T03:00:18;14.20;99.90
18169;DHT22;49877;50.398;30.324;2022-09-12T03:03:01;14.20;99.90
18169;DHT22;49877;50.398;30.324;2022-09-12T03:05:34;14.20;99.90
18169;DHT22;49877;50.398;30.324;2022-09-12T03:08:23;14.10;99.90
18169;DHT22;49877;50.398;30.324;2022-09-12T03:11:07;14.10;99.90
18169;DHT22;49877;50.398;30.324;2022-09-12T03:13:41;14.20;99.90
18169;DHT22;49877;50.398;30.324;2022-09-12T03:16:18;14.10;99.90
18169;DHT22;49877;50.398;30.324;2022-09-12T03:18:57;14.10;99.90
18169;DHT22;49877;50.398;30.324;2022-09-12T03:21:30;14.10;99.90
18169;DHT22;49877;50.398;30.324;2022-09-12T03:24:08;14.00;99.90
18169;DHT22;49877;50.398;30.324;2022-09-12T03:26:39;13.90;99.90
18169;DHT22;49877;50.398;30.324;2022-09-12T03:29:10;13.80;99.90
18169;DHT22;49877;50.398;30.324;2022-09-12T03:31:47;13.70;99.90
18169;DHT22;49877;50.398;30.324;2022-09-12T03:34:16;13.60;99.90
18169;DHT22;49877;50.398;30.324;2022-09-12T03:36:43;13.50;99.90
18169;DHT22;49877;50.398;30.324;2022-09-12T03:39:10;13.50;99.90
18169;DHT22;49877;50.398;30.324;2022-09-12T03:41:36;13.50;99.90
18169;DHT22;49877;50.398;30.324;2022-09-12T03:44:03;13.40;99.90
18169;DHT22;49877;50.398;30.324;2022-09-12T03:46:30;13.40;99.90
18169;DHT22;49877;50.398;30.324;2022-09-12T03:48:58;13.30;99.90
18169;DHT22;49877;50.398;30.324;2022-09-12T03:51:26;13.20;99.90
18169;DHT22;49877;50.398;30.324;2022-09-12T03:53:53;13.20;99.90
18169;DHT22;49877;50.398;30.324;2022-09-12T03:56:20;13.10;99.90
18169;DHT22;49877;50.398;30.324;2022-09-12T03:58:47;13.10;99.90
18169;DHT22;49877;50.398;30.324;2022-09-12T04:01:16;13.10;99.90
18169;DHT22;49877;50.398;30.324;2022-09-12T04:03:44;13.00;99.90
18169;DHT22;49877;50.398;30.324;2022-09-12T04:06:13;12.90;99.90
18169;DHT22;49877;50.398;30.324;2022-09-12T04:08:43;12.90;99.90
18169;DHT22;49877;50.398;30.324;2022-09-12T04:11:11;12.80;99.90
18169;DHT22;49877;50.398;30.324;2022-09-12T04:13:40;12.80;99.90
18169;DHT22;49877;50.398;30.324;2022-09-12T04:16:08;12.80;99.90
18169;DHT22;49877;50.398;30.324;2022-09-12T04:18:35;12.80;99.90
18169;DHT22;49877;50.398;30.324;2022-09-12T04:21:03;12.80;99.90
18169;DHT22;49877;50.398;30.324;2022-09-12T04:23:31;12.80;99.90
18169;DHT22;49877;50.398;30.324;2022-09-12T04:26:00;12.80;99.90
18169;DHT22;49877;50.398;30.324;2022-09-12T04:28:28;12.80;99.90
18169;DHT22;49877;50.398;30.324;2022-09-12T04:30:55;12.80;99.90
18169;DHT22;49877;50.398;30.324;2022-09-12T04:33:26;12.80;99.90
18169;DHT22;49877;50.398;30.324;2022-09-12T04:35:53;12.80;99.90
18169;DHT22;49877;50.398;30.324;2022-09-12T04:38:20;12.90;99.90
18169;DHT22;49877;50.398;30.324;2022-09-12T04:40:47;12.90;99.90
18169;DHT22;49877;50.398;30.324;2022-09-12T04:43:15;12.90;99.90
18169;DHT22;49877;50.398;30.324;2022-09-12T04:45:42;12.90;99.90
18169;DHT22;49877;50.398;30.324;2022-09-12T04:48:09;12.90;99.90
18169;DHT22;49877;50.398;30.324;2022-09-12T04:50:36;12.80;99.90
18169;DHT22;49877;50.398;30.324;2022-09-12T04:53:03;12.80;99.90
18169;DHT22;49877;50.398;30.324;2022-09-12T04:55:29;12.80;99.90
18169;DHT22;49877;50.398;30.324;2022-09-12T04:57:56;12.80;99.90
18169;DHT22;49877;50.398;30.324;2022-09-12T05:00:25;12.80;99.90
18169;DHT22;49877;50.398;30.324;2022-09-12T05:02:51;12.80;99.90
18169;DHT22;49877;50.398;30.324;2022-09-12T05:05:18;12.80;99.90
18169;DHT22;49877;50.398;30.324;2022-09-12T05:07:46;12.70;99.90
18169;DHT22;49877;50.398;30.324;2022-09-12T05:10:13;12.70;99.90
18169;DHT22;49877;50.398;30.324;2022-09-12T05:12:41;12.80;99.90
18169;DHT22;49877;50.398;30.324;2022-09-12T05:15:08;12.80;99.90
18169;DHT22;49877;50.398;30.324;2022-09-12T05:17:37;12.80;99.90
18169;DHT22;49877;50.398;30.324;2022-09-12T05:20:04;12.70;99.90
18169;DHT22;49877;50.398;30.324;2022-09-12T05:22:32;12.80;99.90
18169;DHT22;49877;50.398;30.324;2022-09-12T05:24:59;12.80;99.90
18169;DHT22;49877;50.398;30.324;2022-09-12T05:27:26;12.80;99.90
18169;DHT22;49877;50.398;30.324;2022-09-12T05:29:53;12.80;99.90
18169;DHT22;49877;50.398;30.324;2022-09-12T05:32:19;12.80;99.90
18169;DHT22;49877;50.398;30.324;2022-09-12T05:34:48;12.80;99.90
18169;DHT22;49877;50.398;30.324;2022-09-12T05:37:15;12.90;99.90
18169;DHT22;49877;50.398;30.324;2022-09-12T05:39:42;12.90;99.90
18169;DHT22;49877;50.398;30.324;2022-09-12T05:42:09;12.90;99.90
18169;DHT22;49877;50.398;30.324;2022-09-12T05:44:36;12.90;99.90
18169;DHT22;49877;50.398;30.324;2022-09-12T05:47:03;12.80;99.90
18169;DHT22;49877;50.398;30.324;2022-09-12T05:49:30;12.80;99.90
18169;DHT22;49877;50.398;30.324;2022-09-12T05:51:58;12.80;99.90
18169;DHT22;49877;50.398;30.324;2022-09-12T05:54:25;12.80;99.90
18169;DHT22;49877;50.398;30.324;2022-09-12T05:56:52;12.80;99.90
18169;DHT22;49877;50.398;30.324;2022-09-12T05:59:20;12.80;99.90
18169;DHT22;49877;50.398;30.324;2022-09-12T06:01:48;12.80;99.90
18169;DHT22;49877;50.398;30.324;2022-09-12T06:04:15;12.80;99.90
18169;DHT22;49877;50.398;30.324;2022-09-12T06:06:43;12.80;99.90
18169;DHT22;49877;50.398;30.324;2022-09-12T06:09:13;12.90;99.90
18169;DHT22;49877;50.398;30.324;2022-09-12T06:11:41;12.90;99.90
18169;DHT22;49877;50.398;30.324;2022-09-12T06:14:09;13.00;99.90
18169;DHT22;49877;50.398;30.324;2022-09-12T06:16:36;13.00;99.90
18169;DHT22;49877;50.398;30.324;2022-09-12T06:19:04;13.10;99.90
18169;DHT22;49877;50.398;30.324;2022-09-12T06:21:33;13.10;99.90
18169;DHT22;49877;50.398;30.324;2022-09-12T06:24:00;13.20;99.90
18169;DHT22;49877;50.398;30.324;2022-09-12T06:26:29;13.30;99.90
18169;DHT22;49877;50.398;30.324;2022-09-12T06:28:57;13.40;99.90
18169;DHT22;49877;50.398;30.324;2022-09-12T06:31:26;13.50;99.90
18169;DHT22;49877;50.398;30.324;2022-09-12T06:33:55;13.60;99.90
18169;DHT22;49877;50.398;30.324;2022-09-12T06:36:24;13.70;99.90
18169;DHT22;49877;50.398;30.324;2022-09-12T06:38:55;13.80;99.90
18169;DHT22;49877;50.398;30.324;2022-09-12T06:41:22;13.90;99.90
18169;DHT22;49877;50.398;30.324;2022-09-12T06:43:51;13.90;99.90
18169;DHT22;49877;50.398;30.324;2022-09-12T06:46:19;14.10;99.90
18169;DHT22;49877;50.398;30.324;2022-09-12T06:48:46;14.20;99.90
18169;DHT22;49877;50.398;30.324;2022-09-12T06:51:14;14.30;99.90
18169;DHT22;49877;50.398;30.324;2022-09-12T06:53:42;14.30;99.90
18169;DHT22;49877;50.398;30.324;2022-09-12T06:56:11;14.40;99.90
18169;DHT22;49877;50.398;30.324;2022-09-12T06:58:38;14.50;99.90
18169;DHT22;49877;50.398;30.324;2022-09-12T07:01:08;14.50;99.90
18169;DHT22;49877;50.398;30.324;2022-09-12T07:03:36;14.50;99.90
18169;DHT22;49877;50.398;30.324;2022-09-12T07:06:03;14.60;99.90
18169;DHT22;49877;50.398;30.324;2022-09-12T07:08:31;14.60;99.90
18169;DHT22;49877;50.398;30.324;2022-09-12T07:10:59;14.60;99.90
18169;DHT22;49877;50.398;30.324;2022-09-12T07:13:33;14.60;99.90
18169;DHT22;49877;50.398;30.324;2022-09-12T07:16:00;14.70;99.90
18169;DHT22;49877;50.398;30.324;2022-09-12T07:18:29;14.70;99.90
18169;DHT22;49877;50.398;30.324;2022-09-12T07:20:58;14.80;99.90
18169;DHT22;49877;50.398;30.324;2022-09-12T07:23:25;14.80;99.90
18169;DHT22;49877;50.398;30.324;2022-09-12T07:25:52;14.90;99.90
18169;DHT22;49877;50.398;30.324;2022-09-12T07:28:21;15.00;99.90
18169;DHT22;49877;50.398;30.324;2022-09-12T07:30:48;15.00;99.90
18169;DHT22;49877;50.398;30.324;2022-09-12T07:33:16;15.10;99.90
18169;DHT22;49877;50.398;30.324;2022-09-12T07:35:44;15.20;99.90
18169;DHT22;49877;50.398;30.324;2022-09-12T07:38:11;15.30;99.90
18169;DHT22;49877;50.398;30.324;2022-09-12T07:40:38;15.40;99.90
18169;DHT22;49877;50.398;30.324;2022-09-12T07:43:05;15.40;99.90
18169;DHT22;49877;50.398;30.324;2022-09-12T07:45:32;15.50;99.90
18169;DHT22;49877;50.398;30.324;2022-09-12T07:47:59;15.50;99.90
18169;DHT22;49877;50.398;30.324;2022-09-12T07:50:25;15.50;99.90
18169;DHT22;49877;50.398;30.324;2022-09-12T07:52:54;15.50;99.90
18169;DHT22;49877;50.398;30.324;2022-09-12T07:55:21;15.60;99.90
18169;DHT22;49877;50.398;30.324;2022-09-12T07:57:48;15.60;99.90
18169;DHT22;49877;50.398;30.324;2022-09-12T08:00:16;15.70;99.90
18169;DHT22;49877;50.398;30.324;2022-09-12T08:02:43;15.80;99.90
18169;DHT22;49877;50.398;30.324;2022-09-12T08:05:10;15.90;99.90
18169;DHT22;49877;50.398;30.324;2022-09-12T08:07:37;15.90;99.90
18169;DHT22;49877;50.398;30.324;2022-09-12T08:10:06;16.00;99.90
18169;DHT22;49877;50.398;30.324;2022-09-12T08:12:33;16.00;99.90
18169;DHT22;49877;50.398;30.324;2022-09-12T08:15:00;16.00;99.90
18169;DHT22;49877;50.398;30.324;2022-09-12T08:17:27;16.00;99.90
18169;DHT22;49877;50.398;30.324;2022-09-12T08:19:55;16.00;99.90
18169;DHT22;49877;50.398;30.324;2022-09-12T08:22:22;16.10;99.90
18169;DHT22;49877;50.398;30.324;2022-09-12T08:24:50;16.10;99.90
18169;DHT22;49877;50.398;30.324;2022-09-12T08:27:18;16.10;99.90
18169;DHT22;49877;50.398;30.324;2022-09-12T08:29:45;16.10;99.90
18169;DHT22;49877;50.398;30.324;2022-09-12T08:32:12;16.10;99.90
18169;DHT22;49877;50.398;30.324;2022-09-12T08:34:39;16.10;99.90
18169;DHT22;49877;50.398;30.324;2022-09-12T08:37:06;16.20;99.90
18169;DHT22;49877;50.398;30.324;2022-09-12T08:39:32;16.20;99.90
18169;DHT22;49877;50.398;30.324;2022-09-12T08:42:01;16.20;99.90
18169;DHT22;49877;50.398;30.324;2022-09-12T08:44:40;16.20;99.90
18169;DHT22;49877;50.398;30.324;2022-09-12T08:47:18;16.20;99.90
18169;DHT22;49877;50.398;30.324;2022-09-12T08:49:59;16.30;99.90
18169;DHT22;49877;50.398;30.324;2022-09-12T08:52:32;16.30;99.90
18169;DHT22;49877;50.398;30.324;2022-09-12T08:55:01;16.30;99.90
18169;DHT22;49877;50.398;30.324;2022-09-12T08:57:28;16.30;99.90
18169;DHT22;49877;50.398;30.324;2022-09-12T08:59:56;16.40;99.90
18169;DHT22;49877;50.398;30.324;2022-09-12T09:02:37;16.40;99.90
18169;DHT22;49877;50.398;30.324;2022-09-12T09:05:16;16.50;99.90
18169;DHT22;49877;50.398;30.324;2022-09-12T09:08:16;16.50;99.90
18169;DHT22;49877;50.398;30.324;2022-09-12T09:10:49;16.50;99.90
18169;DHT22;49877;50.398;30.324;2022-09-12T09:13:32;16.50;99.90
18169;DHT22;49877;50.398;30.324;2022-09-12T09:16:24;16.50;99.90
18169;DHT22;49877;50.398;30.324;2022-09-12T09:18:54;16.50;99.90
18169;DHT22;49877;50.398;30.324;2022-09-12T09:21:26;16.60;99.90
18169;DHT22;49877;50.398;30.324;2022-09-12T09:24:00;16.60;99.90
18169;DHT22;49877;50.398;30.324;2022-09-12T09:26:32;16.70;99.90
18169;DHT22;49877;50.398;30.324;2022-09-12T09:29:03;16.70;99.90
18169;DHT22;49877;50.398;30.324;2022-09-12T09:31:36;16.70;99.90
18169;DHT22;49877;50.398;30.324;2022-09-12T09:34:11;16.60;99.90
18169;DHT22;49877;50.398;30.324;2022-09-12T09:36:47;16.50;99.90
18169;DHT22;49877;50.398;30.324;2022-09-12T09:39:23;16.50;99.90
18169;DHT22;49877;50.398;30.324;2022-09-12T09:42:00;16.40;99.90
18169;DHT22;49877;50.398;30.324;2022-09-12T09:44:33;16.30;99.90
18169;DHT22;49877;50.398;30.324;2022-09-12T09:47:02;16.20;99.90
18169;DHT22;49877;50.398;30.324;2022-09-12T09:49:31;16.10;99.90
18169;DHT22;49877;50.398;30.324;2022-09-12T09:51:59;16.00;99.90
18169;DHT22;49877;50.398;30.324;2022-09-12T09:54:30;15.90;99.90
18169;DHT22;49877;50.398;30.324;2022-09-12T09:57:00;15.60;99.90
18169;DHT22;49877;50.398;30.324;2022-09-12T09:59:28;15.50;99.90
18169;DHT22;49877;50.398;30.324;2022-09-12T10:01:57;15.40;99.90
18169;DHT22;49877;50.398;30.324;2022-09-12T10:04:30;15.30;99.90
18169;DHT22;49877;50.398;30.324;2022-09-12T10:07:00;15.20;99.90
18169;DHT22;49877;50.398;30.324;2022-09-12T10:09:27;15.10;99.90
18169;DHT22;49877;50.398;30.324;2022-09-12T10:11:55;14.90;99.90
18169;DHT22;49877;50.398;30.324;2022-09-12T10:14:28;14.70;99.90
18169;DHT22;49877;50.398;30.324;2022-09-12T10:16:56;14.50;99.90
18169;DHT22;49877;50.398;30.324;2022-09-12T10:19:34;14.30;99.90
18169;DHT22;49877;50.398;30.324;2022-09-12T10:22:02;14.20;99.90
18169;DHT22;49877;50.398;30.324;2022-09-12T10:24:33;14.10;99.90
18169;DHT22;49877;50.398;30.324;2022-09-12T10:27:14;14.10;99.90
18169;DHT22;49877;50.398;30.324;2022-09-12T10:29:44;14.10;99.90
18169;DHT22;49877;50.398;30.324;2022-09-12T10:32:20;14.10;99.90
18169;DHT22;49877;50.398;30.324;2022-09-12T10:34:52;14.00;99.90
18169;DHT22;49877;50.398;30.324;2022-09-12T10:37:23;14.00;99.90
18169;DHT22;49877;50.398;30.324;2022-09-12T10:39:54;13.90;99.90
18169;DHT22;49877;50.398;30.324;2022-09-12T10:42:45;13.80;99.90
18169;DHT22;49877;50.398;30.324;2022-09-12T10:45:21;13.90;99.90
18169;DHT22;49877;50.398;30.324;2022-09-12T10:47:49;13.80;99.90
18169;DHT22;49877;50.398;30.324;2022-09-12T10:50:23;13.90;99.90
18169;DHT22;49877;50.398;30.324;2022-09-12T10:52:51;13.90;99.90
18169;DHT22;49877;50.398;30.324;2022-09-12T10:55:24;14.00;99.90
18169;DHT22;49877;50.398;30.324;2022-09-12T10:58:06;14.00;99.90
18169;DHT22;49877;50.398;30.324;2022-09-12T11:00:40;14.00;99.90
18169;DHT22;49877;50.398;30.324;2022-09-12T11:03:15;14.20;99.90
18169;DHT22;49877;50.398;30.324;2022-09-12T11:05:55;14.30;99.90
18169;DHT22;49877;50.398;30.324;2022-09-12T11:08:50;14.30;99.90
18169;DHT22;49877;50.398;30.324;2022-09-12T11:11:45;14.40;99.90
18169;DHT22;49877;50.398;30.324;2022-09-12T11:14:23;14.50;99.90
18169;DHT22;49877;50.398;30.324;2022-09-12T11:16:59;14.60;99.90
18169;DHT22;49877;50.398;30.324;2022-09-12T11:19:44;14.70;99.90
18169;DHT22;49877;50.398;30.324;2022-09-12T11:22:31;14.70;99.90
18169;DHT22;49877;50.398;30.324;2022-09-12T11:28:16;14.90;99.90
18169;DHT22;49877;50.398;30.324;2022-09-12T11:30:56;15.00;99.90
18169;DHT22;49877;50.398;30.324;2022-09-12T11:33:39;15.10;99.90
18169;DHT22;49877;50.398;30.324;2022-09-12T11:36:11;15.30;99.90
18169;DHT22;49877;50.398;30.324;2022-09-12T11:38:58;15.40;99.90
18169;DHT22;49877;50.398;30.324;2022-09-12T11:41:30;15.60;99.90
18169;DHT22;49877;50.398;30.324;2022-09-12T11:44:02;15.70;99.90
18169;DHT22;49877;50.398;30.324;2022-09-12T11:46:35;15.80;99.90
18169;DHT22;49877;50.398;30.324;2022-09-12T11:49:10;15.80;99.90
18169;DHT22;49877;50.398;30.324;2022-09-12T11:51:43;16.00;99.90
18169;DHT22;49877;50.398;30.324;2022-09-12T11:54:17;16.10;99.90
18169;DHT22;49877;50.398;30.324;2022-09-12T11:56:46;16.20;99.90
18169;DHT22;49877;50.398;30.324;2022-09-12T11:59:25;16.30;99.90
18169;DHT22;49877;50.398;30.324;2022-09-12T12:01:57;16.40;99.90
18169;DHT22;49877;50.398;30.324;2022-09-12T12:04:31;16.50;99.90
18169;DHT22;49877;50.398;30.324;2022-09-12T12:07:03;16.50;99.90
18169;DHT22;49877;50.398;30.324;2022-09-12T12:09:32;16.50;99.90
18169;DHT22;49877;50.398;30.324;2022-09-12T12:12:02;16.50;99.90
18169;DHT22;49877;50.398;30.324;2022-09-12T12:14:36;16.30;99.90
18169;DHT22;49877;50.398;30.324;2022-09-12T12:17:12;16.20;99.90
18169;DHT22;49877;50.398;30.324;2022-09-12T12:19:40;16.20;99.90
18169;DHT22;49877;50.398;30.324;2022-09-12T12:22:14;16.00;99.90
18169;DHT22;49877;50.398;30.324;2022-09-12T12:25:03;15.80;99.90
18169;DHT22;49877;50.398;30.324;2022-09-12T12:27:49;15.60;99.90
18169;DHT22;49877;50.398;30.324;2022-09-12T12:33:59;15.40;99.90
18169;DHT22;49877;50.398;30.324;2022-09-12T12:36:40;15.40;99.90
18169;DHT22;49877;50.398;30.324;2022-09-12T12:46:00;15.30;99.90
18169;DHT22;49877;50.398;30.324;2022-09-12T12:48:35;15.30;99.90
18169;DHT22;49877;50.398;30.324;2022-09-12T12:57:22;15.30;99.90
18169;DHT22;49877;50.398;30.324;2022-09-12T12:59:53;15.30;99.90
18169;DHT22;49877;50.398;30.324;2022-09-12T13:02:25;15.30;99.90
18169;DHT22;49877;50.398;30.324;2022-09-12T13:04:55;15.20;99.90
18169;DHT22;49877;50.398;30.324;2022-09-12T13:07:30;15.10;99.90
18169;DHT22;49877;50.398;30.324;2022-09-12T13:09:58;15.10;99.90
18169;DHT22;49877;50.398;30.324;2022-09-12T13:12:28;15.10;99.90
18169;DHT22;49877;50.398;30.324;2022-09-12T13:14:56;15.00;99.90
18169;DHT22;49877;50.398;30.324;2022-09-12T13:17:34;14.90;99.90
18169;DHT22;49877;50.398;30.324;2022-09-12T13:20:05;14.70;99.90
18169;DHT22;49877;50.398;30.324;2022-09-12T13:22:41;14.70;99.90
18169;DHT22;49877;50.398;30.324;2022-09-12T13:25:19;14.70;99.90
18169;DHT22;49877;50.398;30.324;2022-09-12T13:27:59;14.70;99.90
18169;DHT22;49877;50.398;30.324;2022-09-12T13:30:27;14.80;99.90
18169;DHT22;49877;50.398;30.324;2022-09-12T13:33:01;14.80;99.90
18169;DHT22;49877;50.398;30.324;2022-09-12T13:35:38;14.80;99.90
18169;DHT22;49877;50.398;30.324;2022-09-12T13:38:13;14.80;99.90
18169;DHT22;49877;50.398;30.324;2022-09-12T13:41:01;14.80;99.90
18169;DHT22;49877;50.398;30.324;2022-09-12T13:43:36;14.80;99.90
18169;DHT22;49877;50.398;30.324;2022-09-12T13:46:06;14.70;99.90
18169;DHT22;49877;50.398;30.324;2022-09-12T13:48:35;14.70;99.90
18169;DHT22;49877;50.398;30.324;2022-09-12T13:51:03;14.70;99.90
18169;DHT22;49877;50.398;30.324;2022-09-12T13:53:38;14.70;99.90
18169;DHT22;49877;50.398;30.324;2022-09-12T13:56:07;14.70;99.90
18169;DHT22;49877;50.398;30.324;2022-09-12T13:58:34;14.80;99.90
18169;DHT22;49877;50.398;30.324;2022-09-12T14:01:06;14.70;99.90
18169;DHT22;49877;50.398;30.324;2022-09-12T14:03:41;14.70;99.90
18169;DHT22;49877;50.398;30.324;2022-09-12T14:06:26;14.60;99.90
18169;DHT22;49877;50.398;30.324;2022-09-12T14:08:54;14.60;99.90
18169;DHT22;49877;50.398;30.324;2022-09-12T14:11:25;14.60;99.90
18169;DHT22;49877;50.398;30.324;2022-09-12T14:13:53;14.60;99.90
18169;DHT22;49877;50.398;30.324;2022-09-12T14:16:22;14.50;99.90
18169;DHT22;49877;50.398;30.324;2022-09-12T14:18:53;14.50;99.90
18169;DHT22;49877;50.398;30.324;2022-09-12T14:21:31;14.50;99.90
18169;DHT22;49877;50.398;30.324;2022-09-12T14:24:00;14.60;99.90
18169;DHT22;49877;50.398;30.324;2022-09-12T14:26:28;14.50;99.90
18169;DHT22;49877;50.398;30.324;2022-09-12T14:28:59;14.50;99.90
18169;DHT22;49877;50.398;30.324;2022-09-12T14:31:29;14.50;99.90
18169;DHT22;49877;50.398;30.324;2022-09-12T14:34:08;14.50;99.90
18169;DHT22;49877;50.398;30.324;2022-09-12T14:36:40;14.50;99.90
18169;DHT22;49877;50.398;30.324;2022-09-12T14:39:17;14.40;99.90
18169;DHT22;49877;50.398;30.324;2022-09-12T14:41:46;14.40;99.90
18169;DHT22;49877;50.398;30.324;2022-09-12T14:44:17;14.40;99.90
18169;DHT22;49877;50.398;30.324;2022-09-12T14:46:45;14.40;99.90
18169;DHT22;49877;50.398;30.324;2022-09-12T14:49:17;14.30;99.90
18169;DHT22;49877;50.398;30.324;2022-09-12T14:51:53;14.30;99.90
18169;DHT22;49877;50.398;30.324;2022-09-12T14:54:37;14.20;99.90
18169;DHT22;49877;50.398;30.324;2022-09-12T14:57:14;14.20;99.90
18169;DHT22;49877;50.398;30.324;2022-09-12T14:59:43;14.20;99.90
18169;DHT22;49877;50.398;30.324;2022-09-12T15:02:21;14.10;99.90
18169;DHT22;49877;50.398;30.324;2022-09-12T15:04:53;14.10;99.90
18169;DHT22;49877;50.398;30.324;2022-09-12T15:07:28;14.10;99.90
18169;DHT22;49877;50.398;30.324;2022-09-12T15:09:58;14.00;99.90
18169;DHT22;49877;50.398;30.324;2022-09-12T15:12:25;14.00;99.90
18169;DHT22;49877;50.398;30.324;2022-09-12T15:14:54;14.00;99.90
18169;DHT22;49877;50.398;30.324;2022-09-12T15:17:23;13.90;99.90
18169;DHT22;49877;50.398;30.324;2022-09-12T15:19:51;13.90;99.90
18169;DHT22;49877;50.398;30.324;2022-09-12T15:22:19;13.90;99.90
18169;DHT22;49877;50.398;30.324;2022-09-12T15:24:47;13.90;99.90
18169;DHT22;49877;50.398;30.324;2022-09-12T15:27:14;13.90;99.90
18169;DHT22;49877;50.398;30.324;2022-09-12T15:29:41;13.90;99.90
18169;DHT22;49877;50.398;30.324;2022-09-12T15:32:13;13.90;99.90
18169;DHT22;49877;50.398;30.324;2022-09-12T15:34:47;13.80;99.90
18169;DHT22;49877;50.398;30.324;2022-09-12T15:37:16;13.80;99.90
18169;DHT22;49877;50.398;30.324;2022-09-12T15:39:43;13.80;99.90
18169;DHT22;49877;50.398;30.324;2022-09-12T15:42:12;13.80;99.90
18169;DHT22;49877;50.398;30.324;2022-09-12T15:44:39;13.80;99.90
18169;DHT22;49877;50.398;30.324;2022-09-12T15:47:09;13.80;99.90
18169;DHT22;49877;50.398;30.324;2022-09-12T15:49:37;13.80;99.90
18169;DHT22;49877;50.398;30.324;2022-09-12T15:52:05;13.80;99.90
18169;DHT22;49877;50.398;30.324;2022-09-12T15:54:33;13.70;99.90
18169;DHT22;49877;50.398;30.324;2022-09-12T15:57:00;13.70;99.90
18169;DHT22;49877;50.398;30.324;2022-09-12T15:59:27;13.70;99.90
18169;DHT22;49877;50.398;30.324;2022-09-12T16:01:55;13.70;99.90